Time;durP1;ratioP1;P1;durP2;ratioP2;P2;SDS_P1;SDS_P2;PMS_P1;PMS_P2;Temp;Humidity;BMP_temperature;BMP_pressure;BME280_temperature;BME280_humidity;BME280_pressure;Samples;Min_cycle;Max_cycle;Signal;HPM_P1;HPM_P2
2022/01/21 00:00:11;;;;;;;13.00;6.78;;;103.10;2227.20;;;;;;4881165;29;20549;-75
2022/01/21 00:02:38;;;;;;;14.02;6.88;;;103.00;2227.20;;;;;;4880832;29;20028;-78
2022/01/21 00:05:04;;;;;;;14.25;6.40;;;102.90;2227.20;;;;;;4897702;29;20045;-76
2022/01/21 00:07:30;;;;;;;18.33;7.95;;;102.90;2227.20;;;;;;4880058;29;20520;-76
2022/01/21 00:09:56;;;;;;;19.00;7.85;;;102.90;2227.20;;;;;;4897694;29;20029;-75
2022/01/21 00:12:22;;;;;;;;;;;102.90;2227.20;;;;;;4897517;29;20037;-75
2022/01/21 00:14:48;;;;;;;14.57;7.00;;;102.90;2227.20;;;;;;4883202;29;20054;-77
2022/01/21 00:17:16;;;;;;;18.65;6.47;;;103.00;2227.20;;;;;;4904930;29;20131;-78
2022/01/21 00:19:45;;;;;;;12.40;5.35;;;103.10;2227.20;;;;;;4888393;29;20025;-79
2022/01/21 00:30:25;;;;;;;11.10;4.88;;;102.90;2227.20;;;;;;4907386;29;20030;-76
2022/01/21 00:32:52;;;;;;;8.73;3.92;;;102.80;2227.20;;;;;;4906459;29;20035;-79
2022/01/21 00:35:18;;;;;;;;;;;102.90;2227.20;;;;;;4906527;29;20081;-76
2022/01/21 00:37:44;;;;;;;10.65;3.80;;;102.90;2227.20;;;;;;4888155;29;19925;-79
2022/01/21 00:40:19;;;;;;;10.27;4.22;;;102.80;2227.20;;;;;;4911833;29;20036;-78
2022/01/21 00:45:13;;;;;;;9.15;3.53;;;103.10;2227.20;;;;;;4906667;29;20540;-79
2022/01/21 00:47:40;;;;;;;8.52;3.83;;;103.00;2227.20;;;;;;4906173;29;20021;-78
2022/01/21 00:50:06;;;;;;;9.85;3.78;;;103.00;2227.20;;;;;;4888265;29;20036;-78
2022/01/21 00:52:32;;;;;;;8.10;3.15;;;102.90;2227.20;;;;;;4906713;29;20016;-75
2022/01/21 00:54:58;;;;;;;10.15;3.72;;;102.90;2227.20;;;;;;4905134;29;20458;-75
2022/01/21 00:57:23;;;;;;;9.32;4.25;;;102.80;2227.20;;;;;;4908434;29;20051;-79
2022/01/21 00:59:49;;;;;;;13.60;5.40;;;102.70;2227.20;;;;;;4893872;29;20020;-78
2022/01/21 01:02:14;;;;;;;;;;;102.80;2227.20;;;;;;4892746;29;20040;-79
2022/01/21 01:04:40;;;;;;;16.40;7.45;;;102.80;2227.20;;;;;;4892310;29;19907;-75
2022/01/21 01:07:06;;;;;;;;;;;102.60;2227.20;;;;;;4893933;29;20384;-77
2022/01/21 01:09:33;;;;;;;12.05;6.90;;;102.50;2227.20;;;;;;4908685;29;20329;-77
2022/01/21 01:22:29;;;;;;;7.95;4.82;;;102.60;2227.20;;;;;;4909875;29;20397;-77
2022/01/21 01:27:42;;;;;;;9.98;3.88;;;102.40;2227.20;;;;;;4909920;29;20488;-75
2022/01/21 01:30:14;;;;;;;12.75;4.32;;;102.50;2227.20;;;;;;4893341;29;20059;-76
2022/01/21 01:32:41;;;;;;;8.32;4.07;;;102.60;2227.20;;;;;;4908926;29;20027;-81
2022/01/21 01:35:09;;;;;;;7.93;4.10;;;102.70;2227.20;;;;;;4891464;29;20020;-74
2022/01/21 01:40:34;;;;;;;9.43;3.65;;;102.70;2227.20;;;;;;4890452;29;20052;-79
2022/01/21 01:49:27;;;;;;;6.45;3.22;;;102.60;2227.20;;;;;;4908879;29;20036;-79
2022/01/21 01:51:09;;;;;;;7.75;3.00;;;102.70;2227.20;;;;;;4909581;29;20023;-79
2022/01/21 01:53:38;;;;;;;8.30;3.58;;;102.80;2227.20;;;;;;4915005;29;20503;-79
2022/01/21 01:56:08;;;;;;;6.65;3.13;;;102.80;2227.20;;;;;;4907452;29;20024;-75
2022/01/21 01:58:36;;;;;;;6.82;3.05;;;102.70;2227.20;;;;;;4909484;29;20016;-79
2022/01/21 02:01:02;;;;;;;9.50;2.95;;;102.60;2227.20;;;;;;4891632;29;20024;-79
2022/01/21 02:03:30;;;;;;;7.53;3.00;;;102.50;2227.20;;;;;;4907076;29;20040;-79
2022/01/21 02:05:55;;;;;;;6.03;2.53;;;102.60;2227.20;;;;;;4909257;29;20020;-76
2022/01/21 02:08:21;;;;;;;8.48;3.22;;;102.50;2227.20;;;;;;4906379;29;20084;-79
2022/01/21 02:10:47;;;;;;;;;;;102.40;2227.20;;;;;;4909650;29;20032;-79
2022/01/21 02:13:23;;;;;;;8.23;3.17;;;77.70;2227.20;;;;;;4909139;29;19914;-79
2022/01/21 02:16:02;;;;;;;3.78;2.20;;;77.70;2227.20;;;;;;4908994;29;20053;-76
2022/01/21 02:24:02;;;;;;;6.97;2.60;;;77.60;2227.20;;;;;;4910163;29;20027;-79
2022/01/21 02:26:29;;;;;;;5.97;3.03;;;77.60;2227.20;;;;;;4907067;29;20099;-75
2022/01/21 02:28:56;;;;;;;11.30;3.63;;;77.70;2227.20;;;;;;4909029;29;20024;-79
2022/01/21 02:31:22;;;;;;;12.30;3.08;;;77.70;2227.20;;;;;;4907973;29;20037;-79
2022/01/21 02:33:48;;;;;;;;;;;77.60;2227.20;;;;;;4907504;29;20032;-78
2022/01/21 02:36:14;;;;;;;7.35;2.08;;;77.60;2227.20;;;;;;4909148;29;19915;-79
2022/01/21 02:38:40;;;;;;;;;;;77.70;2227.20;;;;;;4907443;29;20041;-79
2022/01/21 02:41:05;;;;;;;6.25;2.70;;;77.60;2227.20;;;;;;4906542;29;20320;-79
2022/01/21 02:43:31;;;;;;;;;;;77.60;2227.20;;;;;;4907706;29;20544;-79
2022/01/21 02:46:03;;;;;;;11.73;3.05;;;77.60;2227.20;;;;;;4906523;29;19915;-75
2022/01/21 02:48:28;;;;;;;6.88;2.80;;;77.70;2227.20;;;;;;4905854;29;20024;-75
2022/01/21 02:50:54;;;;;;;6.85;2.65;;;77.60;2227.20;;;;;;4910121;29;20134;-76
2022/01/21 02:53:38;;;;;;;;;;;77.60;2227.20;;;;;;4907607;29;20482;-76
2022/01/21 02:56:04;;;;;;;11.43;4.45;;;77.50;2227.20;;;;;;4908929;29;19997;-76
2022/01/21 02:58:29;;;;;;;;;;;77.60;2227.20;;;;;;4909075;29;20484;-75
2022/01/21 03:00:55;;;;;;;15.18;5.25;;;77.60;2227.20;;;;;;4904801;29;19907;-80
2022/01/21 03:03:20;;;;;;;;;;;77.60;2227.20;;;;;;4907305;29;20474;-79
2022/01/21 03:05:46;;;;;;;16.15;5.97;;;77.70;2227.20;;;;;;4907108;29;20396;-79
2022/01/21 03:08:12;;;;;;;;;;;77.70;2227.20;;;;;;4907969;29;20020;-74
2022/01/21 03:10:37;;;;;;;9.25;4.85;;;77.70;2227.20;;;;;;4889757;29;20292;-75
2022/01/21 03:13:03;;;;;;;;;;;77.70;2227.20;;;;;;4908933;29;20024;-80
2022/01/21 03:15:29;;;;;;;10.63;3.80;;;77.70;2227.20;;;;;;4906524;29;19907;-79
2022/01/21 03:17:54;;;;;;;;;;;77.70;2227.20;;;;;;4907782;29;20556;-79
2022/01/21 03:20:20;;;;;;;11.80;3.88;;;77.60;2227.20;;;;;;4908515;29;19911;-76
2022/01/21 03:22:46;;;;;;;;;;;102.40;2227.20;;;;;;4907606;29;20474;-79
2022/01/21 03:25:12;;;;;;;9.48;3.72;;;102.40;2227.20;;;;;;4906401;29;19919;-80
2022/01/21 03:27:37;;;;;;;;;;;77.70;2227.20;;;;;;4910657;29;20035;-77
2022/01/21 03:30:07;;;;;;;10.68;6.13;;;77.70;2227.20;;;;;;4906323;29;19911;-79
2022/01/21 03:32:32;;;;;;;10.90;3.60;;;77.60;2227.20;;;;;;4891856;29;20035;-77
2022/01/21 03:34:59;;;;;;;8.15;5.05;;;77.60;2227.20;;;;;;4904881;29;20079;-76
2022/01/21 03:37:25;;;;;;;10.05;3.60;;;77.60;2227.20;;;;;;4906913;29;20048;-78
2022/01/21 03:39:51;;;;;;;9.90;3.00;;;77.60;2227.20;;;;;;4890640;29;20614;-75
2022/01/21 03:42:17;;;;;;;;;;;77.50;2227.20;;;;;;4906135;29;20043;-80
2022/01/21 03:44:42;;;;;;;10.77;3.45;;;77.60;2227.20;;;;;;4890281;29;19930;-76
2022/01/21 03:47:08;;;;;;;;;;;77.70;2227.20;;;;;;4907686;29;20024;-76
2022/01/21 03:49:40;;;;;;;9.65;3.72;;;77.60;2227.20;;;;;;4903964;29;20317;-79
2022/01/21 03:52:06;;;;;;;10.73;4.85;;;77.60;2227.20;;;;;;4889620;29;20027;-75
2022/01/21 03:54:35;;;;;;;6.70;3.35;;;77.60;2227.20;;;;;;4907107;29;20035;-78
2022/01/21 03:57:02;;;;;;;10.30;3.45;;;77.50;2227.20;;;;;;4907279;29;20028;-78
2022/01/21 03:59:27;;;;;;;12.07;4.15;;;77.50;2227.20;;;;;;4890140;29;20041;-79
2022/01/21 04:01:53;;;;;;;12.18;3.67;;;77.50;2227.20;;;;;;4905313;29;20036;-79
2022/01/21 04:04:19;;;;;;;;;;;77.60;2227.20;;;;;;4907727;29;20051;-79
2022/01/21 04:06:44;;;;;;;10.90;3.75;;;77.60;2227.20;;;;;;4906043;29;20253;-79
2022/01/21 04:09:11;;;;;;;;;;;102.40;2227.20;;;;;;4889650;29;20024;-76
2022/01/21 04:11:37;;;;;;;5.80;2.85;;;77.70;2227.20;;;;;;4907377;29;19911;-78
2022/01/21 04:14:03;;;;;;;;;;;77.60;2227.20;;;;;;4906364;29;20040;-79
2022/01/21 04:16:29;;;;;;;11.07;4.13;;;77.60;2227.20;;;;;;4907736;29;19943;-79
2022/01/21 04:18:54;;;;;;;14.45;4.13;;;77.60;2227.20;;;;;;4903451;29;20040;-77
2022/01/21 04:21:21;;;;;;;;;;;77.60;2227.20;;;;;;4891161;29;20024;-79
2022/01/21 04:23:46;;;;;;;12.32;3.75;;;77.60;2227.20;;;;;;4889454;29;20265;-76
2022/01/21 04:26:12;;;;;;;13.75;3.50;;;77.70;2227.20;;;;;;4891252;29;20033;-76
2022/01/21 04:28:38;;;;;;;14.02;2.95;;;77.70;2227.20;;;;;;4905116;29;20461;-77
2022/01/21 04:31:03;;;;;;;;;;;77.60;2227.20;;;;;;4892294;29;20504;-75
2022/01/21 04:33:29;;;;;;;8.88;3.65;;;77.50;2227.20;;;;;;4910089;29;19907;-75
2022/01/21 04:35:55;;;;;;;;;;;77.50;2227.20;;;;;;4909474;29;20397;-77
2022/01/21 04:38:23;;;;;;;6.47;2.83;;;77.50;2227.20;;;;;;4910609;29;20327;-75
2022/01/21 04:47:17;;;;;;;12.63;2.80;;;77.70;2227.20;;;;;;4879521;29;20517;-75
2022/01/21 04:49:38;;;;;;;11.52;3.55;;;77.60;2227.20;;;;;;4879380;29;20021;-79
2022/01/21 04:52:05;;;;;;;5.28;3.55;;;77.60;2227.20;;;;;;4879502;29;20040;-75
2022/01/21 04:54:32;;;;;;;8.95;3.40;;;77.40;2227.20;;;;;;4880043;29;20428;-79
2022/01/21 04:56:58;;;;;;;7.10;3.53;;;77.40;2227.20;;;;;;4879484;29;20097;-77
2022/01/21 04:59:24;;;;;;;8.77;3.20;;;77.50;2227.20;;;;;;4879567;29;20037;-80
2022/01/21 05:01:51;;;;;;;10.15;3.65;;;77.50;2227.20;;;;;;4879389;29;20044;-75
2022/01/21 05:04:18;;;;;;;8.25;3.40;;;77.50;2227.20;;;;;;4879349;29;20126;-80
2022/01/21 05:06:44;;;;;;;6.93;3.20;;;77.60;2227.20;;;;;;4879786;29;20121;-77
2022/01/21 05:09:10;;;;;;;10.82;3.08;;;77.50;2227.20;;;;;;4879812;29;20485;-82
2022/01/21 05:11:36;;;;;;;;;;;77.50;2227.20;;;;;;4879983;29;21454;-76
2022/01/21 05:14:28;;;;;;;6.97;2.72;;;77.50;2227.20;;;;;;4876877;29;20010;-76
2022/01/21 05:16:51;;;;;;;14.18;3.50;;;77.50;2227.20;;;;;;4882771;29;20486;-75
2022/01/21 05:19:19;;;;;;;8.55;2.80;;;77.50;2227.20;;;;;;4910969;29;20079;-84
2022/01/21 05:21:49;;;;;;;8.27;2.75;;;77.50;2227.20;;;;;;4911488;29;20028;-84
2022/01/21 05:24:17;;;;;;;9.05;2.45;;;77.50;2227.20;;;;;;4908539;29;20127;-75
2022/01/21 05:26:52;;;;;;;7.43;2.83;;;77.40;2227.20;;;;;;4908335;29;20386;-86
2022/01/21 05:29:19;;;;;;;11.70;2.90;;;77.50;2227.20;;;;;;4907990;29;20044;-78
2022/01/21 05:31:46;;;;;;;8.32;3.33;;;77.60;2227.20;;;;;;4891599;29;20056;-86
2022/01/21 05:34:12;;;;;;;14.48;4.43;;;77.60;2227.20;;;;;;4892248;29;20028;-80
2022/01/21 05:36:40;;;;;;;9.85;4.28;;;77.60;2227.20;;;;;;4908790;29;20135;-78
2022/01/21 05:39:07;;;;;;;11.70;4.47;;;77.60;2227.20;;;;;;4893998;29;20044;-86
2022/01/21 05:41:33;;;;;;;11.07;3.70;;;77.60;2227.20;;;;;;4910020;29;20036;-77
2022/01/21 05:44:03;;;;;;;29.15;11.13;;;77.60;2227.20;;;;;;4907694;29;20064;-79
2022/01/21 05:49:04;;;;;;;11.70;4.38;;;77.60;2227.20;;;;;;4910313;29;20511;-80
2022/01/21 05:51:30;;;;;;;10.07;4.15;;;77.60;2227.20;;;;;;4891912;29;20032;-76
2022/01/21 05:53:56;;;;;;;9.45;4.15;;;77.50;2227.20;;;;;;4891150;29;20057;-84
2022/01/21 05:56:24;;;;;;;8.10;4.03;;;77.50;2227.20;;;;;;4892947;29;20485;-83
2022/01/21 05:58:51;;;;;;;12.68;4.35;;;77.50;2227.20;;;;;;4908393;29;20013;-78
2022/01/21 06:01:17;;;;;;;8.07;2.53;;;77.40;2227.20;;;;;;4910117;29;20055;-75
2022/01/21 06:03:43;;;;;;;7.88;3.42;;;77.40;2227.20;;;;;;4907613;29;20048;-79
2022/01/21 06:06:09;;;;;;;;;;;77.40;2227.20;;;;;;4910288;29;20366;-83
2022/01/21 06:08:37;;;;;;;3.87;2.07;;;77.40;2227.20;;;;;;4896430;29;19992;-84
2022/01/21 06:11:03;;;;;;;7.00;3.20;;;77.30;2227.20;;;;;;4918403;29;20687;-77
2022/01/21 06:13:30;;;;;;;15.02;5.80;;;77.30;2227.20;;;;;;4901829;29;20056;-75
2022/01/21 06:15:56;;;;;;;10.02;5.05;;;77.20;2227.20;;;;;;4901288;29;20025;-84
2022/01/21 06:18:23;;;;;;;12.93;4.68;;;77.20;2227.20;;;;;;4901706;29;20495;-84
2022/01/21 06:20:48;;;;;;;;;;;77.20;2227.20;;;;;;4918576;29;20040;-77
2022/01/21 06:23:14;;;;;;;39.28;15.88;;;77.10;2227.20;;;;;;4918450;29;19907;-84
2022/01/21 06:25:40;;;;;;;;;;;77.00;2227.20;;;;;;4901698;29;20024;-75
2022/01/21 06:28:07;;;;;;;48.05;19.98;;;77.10;2227.20;;;;;;4901145;29;19907;-85
2022/01/21 06:30:32;;;;;;;32.45;15.10;;;77.00;2227.20;;;;;;4918204;29;20106;-85
2022/01/21 06:32:58;;;;;;;20.25;8.50;;;76.90;2227.20;;;;;;4917064;29;20068;-77
2022/01/21 06:35:24;;;;;;;;;;;77.00;2227.20;;;;;;4901629;29;20029;-76
2022/01/21 06:37:49;;;;;;;14.05;4.50;;;76.90;2227.20;;;;;;4900751;29;20332;-84
2022/01/21 06:40:19;;;;;;;;;;;76.90;2227.20;;;;;;4918637;29;20099;-82
2022/01/21 06:42:45;;;;;;;9.07;3.88;;;76.80;2227.20;;;;;;4900011;29;20006;-84
2022/01/21 06:45:11;;;;;;;9.15;5.93;;;52.10;2227.20;;;;;;4904736;29;20477;-75
2022/01/21 06:47:37;;;;;;;8.57;4.80;;;52.10;2227.20;;;;;;4909087;29;20027;-75
2022/01/21 06:50:03;;;;;;;;;;;52.10;2227.20;;;;;;4887339;29;20029;-75
2022/01/21 06:52:30;;;;;;;11.25;5.97;;;52.00;2227.20;;;;;;4898438;29;19907;-75
2022/01/21 06:54:56;;;;;;;15.13;5.60;;;52.00;2227.20;;;;;;4881388;29;20041;-84
2022/01/21 06:57:22;;;;;;;10.88;5.25;;;51.90;2227.20;;;;;;4905647;29;20064;-76
2022/01/21 06:59:48;;;;;;;11.40;4.68;;;52.00;2227.20;;;;;;4908681;29;20054;-83
2022/01/21 07:02:14;;;;;;;9.23;4.75;;;52.00;2227.20;;;;;;4889700;29;20040;-81
2022/01/21 07:04:40;;;;;;;11.27;3.85;;;52.00;2227.20;;;;;;4905296;29;20088;-84
2022/01/21 07:07:06;;;;;;;9.57;4.07;;;76.80;2227.20;;;;;;4898867;29;20032;-84
2022/01/21 07:09:31;;;;;;;;;;;76.90;2227.20;;;;;;4882109;29;20566;-83
2022/01/21 07:11:57;;;;;;;9.35;3.70;;;77.00;2227.20;;;;;;4898345;29;19949;-81
2022/01/21 07:14:23;;;;;;;;;;;77.00;2227.20;;;;;;4898581;29;20028;-76
2022/01/21 07:16:49;;;;;;;15.65;6.22;;;77.00;2227.20;;;;;;4898204;29;20010;-75
2022/01/21 07:19:15;;;;;;;16.15;6.38;;;77.10;2227.20;;;;;;4903693;29;20029;-83
2022/01/21 07:21:41;;;;;;;21.42;9.18;;;77.20;2227.20;;;;;;4907985;29;20496;-81
2022/01/21 07:24:08;;;;;;;33.90;12.52;;;77.20;2227.20;;;;;;4905952;29;20028;-81
2022/01/21 07:26:34;;;;;;;18.90;6.68;;;77.20;2227.20;;;;;;4902780;29;20025;-75
2022/01/21 07:28:59;;;;;;;;;;;77.00;2227.20;;;;;;4903697;29;20045;-80
2022/01/21 07:31:26;;;;;;;11.88;6.32;;;77.20;2227.20;;;;;;4891947;29;19918;-75
2022/01/21 07:33:52;;;;;;;11.88;7.18;;;77.10;2227.20;;;;;;4894807;29;20099;-87
2022/01/21 07:36:18;;;;;;;20.88;9.23;;;77.10;2227.20;;;;;;4889059;29;20421;-78
2022/01/21 07:38:45;;;;;;;11.98;5.75;;;77.30;2227.20;;;;;;4888722;29;20049;-83
2022/01/21 07:41:11;;;;;;;15.93;6.43;;;77.40;2227.20;;;;;;4907136;29;20021;-83
2022/01/21 07:43:36;;;;;;;25.02;10.68;;;77.40;2227.20;;;;;;4902811;29;20039;-75
2022/01/21 07:46:02;;;;;;;;;;;77.40;2227.20;;;;;;4889113;29;20107;-76
2022/01/21 07:48:28;;;;;;;12.93;5.70;;;77.40;2227.20;;;;;;4907087;29;19989;-76
2022/01/21 07:50:53;;;;;;;;;;;77.40;2227.20;;;;;;4894929;29;20083;-80
2022/01/21 07:53:19;;;;;;;16.15;8.65;;;77.50;2227.20;;;;;;4916520;29;19907;-77
2022/01/21 07:55:49;;;;;;;12.57;6.30;;;77.50;2227.20;;;;;;4899951;29;20385;-81
2022/01/21 07:58:16;;;;;;;17.20;6.72;;;77.50;2227.20;;;;;;4899437;29;20044;-79
2022/01/21 08:00:41;;;;;;;10.50;5.65;;;77.40;2227.20;;;;;;4916429;29;20024;-77
2022/01/21 08:03:07;;;;;;;13.90;6.45;;;77.30;2227.20;;;;;;4899573;29;20086;-76
2022/01/21 08:05:34;;;;;;;9.80;4.53;;;77.10;2227.20;;;;;;4904867;29;20037;-76
2022/01/21 08:08:00;;;;;;;14.13;6.25;;;77.30;2227.20;;;;;;4902183;29;20473;-76
2022/01/21 08:10:27;;;;;;;14.00;6.45;;;77.50;2227.20;;;;;;4904585;29;20033;-77
2022/01/21 08:12:52;;;;;;;;;;;77.50;2227.20;;;;;;4907791;29;20064;-76
2022/01/21 08:15:18;;;;;;;17.50;7.63;;;77.30;2227.20;;;;;;4904972;29;20011;-78
2022/01/21 08:17:44;;;;;;;;;;;77.30;2227.20;;;;;;4906333;29;20481;-76
2022/01/21 08:20:10;;;;;;;20.25;6.93;;;77.40;2227.20;;;;;;4884130;29;19975;-80
2022/01/21 08:22:35;;;;;;;;;;;77.30;2227.20;;;;;;4902735;29;20020;-76
2022/01/21 08:25:01;;;;;;;18.52;8.35;;;77.20;2227.20;;;;;;4916242;29;19914;-81
2022/01/21 08:27:27;;;;;;;16.42;7.63;;;77.20;2227.20;;;;;;4902242;29;20467;-80
2022/01/21 08:29:53;;;;;;;;;;;77.30;2227.20;;;;;;4880806;29;20056;-75
2022/01/21 08:32:20;;;;;;;11.82;4.82;;;77.30;2227.20;;;;;;4880945;29;19915;-81
2022/01/21 08:34:46;;;;;;;14.75;4.03;;;77.10;2227.20;;;;;;4904185;29;20027;-75
2022/01/21 08:37:11;;;;;;;11.07;3.58;;;77.10;2227.20;;;;;;4904841;29;20036;-74
2022/01/21 08:39:37;;;;;;;;;;;76.90;2227.20;;;;;;4885343;29;20497;-76
2022/01/21 08:42:06;;;;;;;10.52;3.20;;;76.80;2227.20;;;;;;4897135;29;19914;-75
2022/01/21 08:44:32;;;;;;;9.63;3.22;;;76.80;2227.20;;;;;;4902061;29;20016;-86
2022/01/21 08:46:57;;;;;;;;;;;52.10;2227.20;;;;;;4902423;29;20071;-82
2022/01/21 08:49:23;;;;;;;10.02;2.80;;;52.10;2227.20;;;;;;4890288;29;20365;-76
2022/01/21 08:51:54;;;;;;;;;;;76.80;2227.20;;;;;;4916453;29;20032;-78
2022/01/21 08:54:22;;;;;;;12.13;4.43;;;76.80;2227.20;;;;;;4899498;29;19939;-76
2022/01/21 08:56:49;;;;;;;12.27;4.25;;;76.80;2227.20;;;;;;4915902;29;20087;-79
2022/01/21 08:59:19;;;;;;;9.77;3.85;;;76.90;2227.20;;;;;;4916138;29;20057;-77
2022/01/21 09:01:45;;;;;;;8.68;3.95;;;76.90;2227.20;;;;;;4895551;29;20172;-76
2022/01/21 09:04:12;;;;;;;10.15;2.83;;;77.00;2227.20;;;;;;4904351;29;20099;-77
2022/01/21 09:06:38;;;;;;;7.30;3.92;;;77.20;2227.20;;;;;;4890896;29;20116;-82
2022/01/21 09:09:04;;;;;;;9.65;3.40;;;77.20;2227.20;;;;;;4904751;29;20153;-76
2022/01/21 09:11:30;;;;;;;11.50;3.40;;;77.10;2227.20;;;;;;4915732;29;20111;-78
2022/01/21 09:13:57;;;;;;;7.63;2.85;;;77.20;2227.20;;;;;;4909731;29;20478;-77
2022/01/21 09:16:23;;;;;;;8.13;2.97;;;77.20;2227.20;;;;;;4907646;29;20055;-75
2022/01/21 09:18:54;;;;;;;;;;;77.20;2227.20;;;;;;4893200;29;20127;-75
2022/01/21 09:21:23;;;;;;;11.75;3.28;;;77.30;2227.20;;;;;;4916435;29;20030;-76
2022/01/21 09:23:49;;;;;;;7.93;3.45;;;77.20;2227.20;;;;;;4919665;29;20047;-78
2022/01/21 09:26:19;;;;;;;;;;;77.40;2227.20;;;;;;4919575;29;20111;-86
2022/01/21 09:28:46;;;;;;;7.78;3.63;;;77.40;2227.20;;;;;;4919378;29;19910;-75
2022/01/21 09:31:12;;;;;;;13.85;3.63;;;77.30;2227.20;;;;;;4918983;29;20572;-83
2022/01/21 09:33:39;;;;;;;;;;;77.30;2227.20;;;;;;4902798;29;20052;-80
2022/01/21 09:36:05;;;;;;;4.88;2.08;;;77.20;2227.20;;;;;;4902135;29;19907;-82
2022/01/21 09:38:30;;;;;;;;;;;77.20;2227.20;;;;;;4902085;29;20457;-81
2022/01/21 09:40:57;;;;;;;15.07;5.13;;;77.40;2227.20;;;;;;4901839;29;19912;-80
2022/01/21 09:43:23;;;;;;;10.38;5.40;;;77.40;2227.20;;;;;;4901936;29;20111;-82
2022/01/21 09:45:53;;;;;;;9.00;3.35;;;102.40;2227.20;;;;;;4919156;29;20028;-77
2022/01/21 09:48:26;;;;;;;9.43;4.00;;;102.40;2227.20;;;;;;4918896;29;20032;-75
2022/01/21 09:50:55;;;;;;;5.85;3.10;;;102.70;2227.20;;;;;;4917715;29;20036;-81
2022/01/21 09:53:31;;;;;;;13.00;5.20;;;102.50;2227.20;;;;;;4918725;29;20028;-81
2022/01/21 09:55:59;;;;;;;16.00;5.88;;;102.70;2227.20;;;;;;4918416;29;20058;-76
2022/01/21 09:58:27;;;;;;;13.15;4.57;;;103.10;2227.20;;;;;;4918696;29;20036;-75
2022/01/21 10:00:55;;;;;;;14.50;5.78;;;103.00;2227.20;;;;;;4918616;29;20481;-81
2022/01/21 10:03:22;;;;;;;11.15;4.85;;;102.60;2227.20;;;;;;4918810;29;20106;-78
2022/01/21 10:05:49;;;;;;;9.77;4.07;;;102.70;2227.20;;;;;;4918900;29;20072;-82
2022/01/21 10:08:15;;;;;;;11.75;5.22;;;102.60;2227.20;;;;;;4896196;29;20039;-81
2022/01/21 10:10:43;;;;;;;12.68;4.95;;;102.70;2227.20;;;;;;4907904;29;20167;-76
2022/01/21 10:13:10;;;;;;;11.77;4.63;;;102.80;2227.20;;;;;;4909205;29;20044;-81
2022/01/21 10:15:37;;;;;;;13.48;4.80;;;102.80;2227.20;;;;;;4891569;29;20047;-76
2022/01/21 10:18:11;;;;;;;11.80;3.80;;;102.60;2227.20;;;;;;4906720;29;20523;-81
2022/01/21 10:20:37;;;;;;;9.07;3.17;;;77.70;2227.20;;;;;;4914427;29;20191;-75
2022/01/21 10:23:04;;;;;;;;;;;77.70;2227.20;;;;;;4911230;29;20043;-80
2022/01/21 10:25:31;;;;;;;9.90;3.28;;;77.70;2227.20;;;;;;4892480;29;19919;-80
2022/01/21 10:28:17;;;;;;;9.23;3.38;;;77.50;2227.20;;;;;;4909007;29;20024;-74
2022/01/21 10:30:44;;;;;;;10.88;4.78;;;77.60;2227.20;;;;;;4916279;29;20028;-76
2022/01/21 10:33:19;;;;;;;9.60;3.55;;;102.60;2227.20;;;;;;4909616;29;20029;-80
2022/01/21 10:35:48;;;;;;;10.90;3.72;;;102.40;2227.20;;;;;;4907424;29;20017;-78
2022/01/21 10:38:31;;;;;;;10.80;4.15;;;102.40;2227.20;;;;;;4908277;29;20048;-75
2022/01/21 10:41:05;;;;;;;13.73;4.80;;;102.70;2201.60;;;;;;4909793;29;20027;-79
2022/01/21 10:43:31;;;;;;;13.45;5.00;;;102.90;2201.60;;;;;;4890022;29;20064;-80
2022/01/21 10:45:59;;;;;;;14.23;5.32;;;103.10;2176.00;;;;;;4905285;29;20023;-79
2022/01/21 10:48:29;;;;;;;16.80;5.25;;;128.00;2201.60;;;;;;4890472;29;20020;-80
2022/01/21 10:51:14;;;;;;;14.48;4.68;;;128.30;2073.60;;;;;;4905984;29;20033;-76
2022/01/21 10:53:43;;;;;;;9.02;3.38;;;128.00;2073.60;;;;;;4909121;29;20083;-77
2022/01/21 10:56:11;;;;;;;6.38;3.03;;;103.10;2048.00;;;;;;4889502;29;20103;-75
2022/01/21 10:58:41;;;;;;;17.13;5.45;;;102.90;2022.40;;;;;;4907252;29;20073;-78
2022/01/21 11:01:17;;;;;;;16.30;4.53;;;102.80;2022.40;;;;;;4908255;29;20126;-80
2022/01/21 11:03:56;;;;;;;15.02;4.70;;;103.10;2022.40;;;;;;4907999;29;20024;-75
2022/01/21 11:06:24;;;;;;;11.23;3.78;;;128.60;2022.40;;;;;;4907524;29;20048;-76
2022/01/21 11:08:50;;;;;;;7.75;3.03;;;128.60;1971.20;;;;;;4911543;29;20039;-75
2022/01/21 11:11:23;;;;;;;12.57;3.65;;;128.60;1996.80;;;;;;4917321;29;20036;-79
2022/01/21 11:13:48;;;;;;;11.45;3.47;;;128.50;1945.60;;;;;;4900153;29;20059;-77
2022/01/21 11:16:23;;;;;;;17.52;5.10;;;128.30;1996.80;;;;;;4916855;29;20485;-76
2022/01/21 11:18:50;;;;;;;7.00;2.90;;;128.20;1996.80;;;;;;4917239;29;20124;-76
2022/01/21 11:21:16;;;;;;;9.15;3.15;;;103.20;2022.40;;;;;;4899775;29;20048;-75
2022/01/21 11:23:42;;;;;;;8.45;2.40;;;103.10;2048.00;;;;;;4917363;29;20032;-76
2022/01/21 11:26:12;;;;;;;;;;;102.80;2099.20;;;;;;4912816;29;20034;-80
2022/01/21 11:28:49;;;;;;;21.85;6.68;;;102.70;2073.60;;;;;;4917274;29;19962;-76
2022/01/21 11:31:20;;;;;;;20.75;6.22;;;102.50;2073.60;;;;;;4916975;29;20035;-77
2022/01/21 11:33:47;;;;;;;19.55;6.13;;;102.50;2124.80;;;;;;4899854;29;20055;-79
2022/01/21 11:36:12;;;;;;;16.50;8.00;;;102.40;2124.80;;;;;;4916951;29;20433;-79
2022/01/21 11:38:41;;;;;;;20.95;7.95;;;102.50;2124.80;;;;;;4916494;29;20048;-76
2022/01/21 11:41:08;;;;;;;26.55;8.25;;;102.50;2099.20;;;;;;4916513;29;20552;-80
2022/01/21 11:43:36;;;;;;;10.32;3.25;;;102.40;2124.80;;;;;;4916846;29;20035;-82
2022/01/21 11:46:26;;;;;;;8.90;2.90;;;77.60;2073.60;;;;;;4899851;29;20429;-80
2022/01/21 11:49:00;;;;;;;10.55;4.68;;;77.50;2124.80;;;;;;4900061;29;20044;-79
2022/01/21 11:51:35;;;;;;;15.15;5.97;;;77.10;2150.40;;;;;;4906763;29;20064;-78
2022/01/21 11:54:09;;;;;;;20.13;7.15;;;77.20;2150.40;;;;;;4907571;29;20020;-81
2022/01/21 11:56:57;;;;;;;6.63;3.15;;;77.30;2150.40;;;;;;4906095;29;20035;-78
2022/01/21 11:59:35;;;;;;;11.93;3.13;;;77.20;2150.40;;;;;;4896111;29;20035;-76
2022/01/21 12:02:21;;;;;;;8.30;3.53;;;77.00;2176.00;;;;;;4916224;29;20020;-77
2022/01/21 12:05:00;;;;;;;9.38;2.60;;;77.10;2201.60;;;;;;4916883;29;20031;-81
2022/01/21 12:07:40;;;;;;;8.02;3.20;;;77.10;2176.00;;;;;;4916613;29;20038;-79
2022/01/21 12:10:25;;;;;;;9.70;3.58;;;77.20;2176.00;;;;;;4916370;29;20028;-78
2022/01/21 12:13:14;;;;;;;10.52;3.92;;;77.50;2124.80;;;;;;4915635;29;20028;-76
2022/01/21 12:21:38;;;;;;;13.77;3.85;;;102.50;2022.40;;;;;;4916327;29;20035;-76
2022/01/21 12:24:05;;;;;;;13.05;7.15;;;77.60;2073.60;;;;;;4899504;29;20031;-78
2022/01/21 12:26:31;;;;;;;12.18;4.53;;;77.50;2099.20;;;;;;4916757;29;20020;-81
2022/01/21 12:28:57;;;;;;;17.90;5.60;;;102.60;2048.00;;;;;;4916404;29;20017;-77
2022/01/21 12:31:49;;;;;;;7.47;2.53;;;103.00;1996.80;;;;;;4916345;29;20035;-77
2022/01/21 12:34:16;;;;;;;8.90;3.85;;;102.80;1996.80;;;;;;4908021;29;20021;-76
2022/01/21 12:36:48;;;;;;;9.13;3.75;;;103.10;1971.20;;;;;;4905280;29;20025;-79
2022/01/21 12:39:41;;;;;;;12.85;5.00;;;102.90;1971.20;;;;;;4905783;29;20048;-80
2022/01/21 12:42:25;;;;;;;7.93;3.42;;;102.60;2022.40;;;;;;4908250;29;20028;-80
2022/01/21 12:45:08;;;;;;;9.95;3.70;;;102.80;1996.80;;;;;;4906834;29;20020;-80
2022/01/21 12:47:41;;;;;;;10.65;3.25;;;102.90;1996.80;;;;;;4906653;29;20028;-77
2022/01/21 12:50:14;;;;;;;8.40;2.33;;;102.70;1996.80;;;;;;4906629;29;20075;-77
2022/01/21 12:52:48;;;;;;;7.75;3.50;;;77.70;1996.80;;;;;;4909447;29;20020;-80
2022/01/21 12:58:47;;;;;;;11.55;5.10;;;77.70;2022.40;;;;;;4913525;29;20059;-78
2022/01/21 13:01:13;;;;;;;14.90;5.07;;;77.70;2048.00;;;;;;4913847;29;20123;-76
2022/01/21 13:03:56;;;;;;;;;;;102.70;2022.40;;;;;;4911192;29;20024;-77
2022/01/21 13:06:36;;;;;;;11.68;3.33;;;102.60;2048.00;;;;;;4909913;29;19911;-81
2022/01/21 13:09:02;;;;;;;11.00;4.10;;;102.60;1996.80;;;;;;4915324;29;20106;-78
2022/01/21 13:11:30;;;;;;;8.75;4.38;;;102.70;1996.80;;;;;;4918174;29;20127;-76
2022/01/21 13:14:53;;;;;;;8.23;3.05;;;102.90;2022.40;;;;;;4919700;29;20080;-82
2022/01/21 13:16:58;;;;;;;12.48;4.05;;;102.80;1996.80;;;;;;4909633;29;20508;-76
2022/01/21 13:19:24;;;;;;;5.72;2.63;;;103.20;1945.60;;;;;;4918378;29;20099;-83
2022/01/21 13:21:49;;;;;;;;;;;103.00;1920.00;;;;;;4920085;29;20484;-82
2022/01/21 13:24:26;;;;;;;8.07;2.97;;;102.90;1920.00;;;;;;4919284;29;19914;-76
2022/01/21 13:26:53;;;;;;;6.82;2.85;;;102.90;1894.40;;;;;;4902656;29;20040;-80
2022/01/21 13:29:30;;;;;;;8.48;3.88;;;102.70;1894.40;;;;;;4902778;29;20507;-75
2022/01/21 13:31:58;;;;;;;6.30;3.05;;;103.00;1894.40;;;;;;4918328;29;20116;-79